sensor_id;sensor_type;location;lat;lon;timestamp;temperature;humidity
33564;DHT22;19894;48.452;11.494;2023-03-12T00:00:29;18.40;32.10
33564;DHT22;19894;48.452;11.494;2023-03-12T00:02:55;18.40;32.10
33564;DHT22;19894;48.452;11.494;2023-03-12T00:05:21;18.40;32.10
33564;DHT22;19894;48.452;11.494;2023-03-12T00:07:47;18.40;32.10
33564;DHT22;19894;48.452;11.494;2023-03-12T00:10:13;18.40;32.10
33564;DHT22;19894;48.452;11.494;2023-03-12T00:12:39;18.40;32.10
33564;DHT22;19894;48.452;11.494;2023-03-12T00:15:06;18.40;32.10
33564;DHT22;19894;48.452;11.494;2023-03-12T00:17:31;18.40;32.10
33564;DHT22;19894;48.452;11.494;2023-03-12T00:19:57;18.40;32.10
33564;DHT22;19894;48.452;11.494;2023-03-12T00:22:23;18.30;32.00
33564;DHT22;19894;48.452;11.494;2023-03-12T00:24:51;18.40;32.10
33564;DHT22;19894;48.452;11.494;2023-03-12T00:27:16;18.40;32.10
33564;DHT22;19894;48.452;11.494;2023-03-12T00:29:42;18.40;32.10
33564;DHT22;19894;48.452;11.494;2023-03-12T00:32:08;18.40;32.60
33564;DHT22;19894;48.452;11.494;2023-03-12T00:34:33;18.40;32.10
33564;DHT22;19894;48.452;11.494;2023-03-12T00:36:59;18.40;32.10
33564;DHT22;19894;48.452;11.494;2023-03-12T00:39:24;18.40;32.10
33564;DHT22;19894;48.452;11.494;2023-03-12T00:41:50;18.40;32.10
33564;DHT22;19894;48.452;11.494;2023-03-12T00:44:16;18.40;32.10
33564;DHT22;19894;48.452;11.494;2023-03-12T00:46:42;18.40;32.10
33564;DHT22;19894;48.452;11.494;2023-03-12T00:49:07;18.40;32.00
33564;DHT22;19894;48.452;11.494;2023-03-12T00:51:34;18.40;32.00
33564;DHT22;19894;48.452;11.494;2023-03-12T00:53:59;18.40;31.90
33564;DHT22;19894;48.452;11.494;2023-03-12T00:56:25;18.40;32.00
33564;DHT22;19894;48.452;11.494;2023-03-12T00:58:50;18.40;31.90
33564;DHT22;19894;48.452;11.494;2023-03-12T01:01:16;18.40;31.90
33564;DHT22;19894;48.452;11.494;2023-03-12T01:03:42;18.40;31.90
33564;DHT22;19894;48.452;11.494;2023-03-12T01:06:08;18.40;32.00
33564;DHT22;19894;48.452;11.494;2023-03-12T01:08:33;18.40;32.00
33564;DHT22;19894;48.452;11.494;2023-03-12T01:10:59;18.40;32.00
33564;DHT22;19894;48.452;11.494;2023-03-12T01:13:25;18.40;31.90
33564;DHT22;19894;48.452;11.494;2023-03-12T01:15:50;18.40;32.00
33564;DHT22;19894;48.452;11.494;2023-03-12T01:18:16;18.40;32.00
33564;DHT22;19894;48.452;11.494;2023-03-12T01:20:41;18.40;32.00
33564;DHT22;19894;48.452;11.494;2023-03-12T01:23:07;18.40;32.00
33564;DHT22;19894;48.452;11.494;2023-03-12T01:25:34;18.40;32.00
33564;DHT22;19894;48.452;11.494;2023-03-12T01:27:59;18.40;31.90
33564;DHT22;19894;48.452;11.494;2023-03-12T01:30:25;18.40;32.00
33564;DHT22;19894;48.452;11.494;2023-03-12T01:32:51;18.40;31.90
33564;DHT22;19894;48.452;11.494;2023-03-12T01:35:17;18.40;31.90
33564;DHT22;19894;48.452;11.494;2023-03-12T01:37:42;18.40;31.90
33564;DHT22;19894;48.452;11.494;2023-03-12T01:40:17;18.40;31.90
33564;DHT22;19894;48.452;11.494;2023-03-12T01:42:50;18.40;31.90
33564;DHT22;19894;48.452;11.494;2023-03-12T01:48:19;18.40;31.80
33564;DHT22;19894;48.452;11.494;2023-03-12T01:50:44;18.40;31.90
33564;DHT22;19894;48.452;11.494;2023-03-12T01:53:11;18.40;32.40
33564;DHT22;19894;48.452;11.494;2023-03-12T01:55:37;18.40;31.80
33564;DHT22;19894;48.452;11.494;2023-03-12T01:58:03;18.40;31.80
33564;DHT22;19894;48.452;11.494;2023-03-12T02:00:30;18.40;31.70
33564;DHT22;19894;48.452;11.494;2023-03-12T02:02:59;18.40;31.80
33564;DHT22;19894;48.452;11.494;2023-03-12T02:08:03;18.40;31.80
33564;DHT22;19894;48.452;11.494;2023-03-12T02:10:29;18.40;31.90
33564;DHT22;19894;48.452;11.494;2023-03-12T02:12:55;18.40;31.90
33564;DHT22;19894;48.452;11.494;2023-03-12T02:15:20;18.40;31.90
33564;DHT22;19894;48.452;11.494;2023-03-12T02:17:46;18.40;31.90
33564;DHT22;19894;48.452;11.494;2023-03-12T02:23:08;18.40;31.80
33564;DHT22;19894;48.452;11.494;2023-03-12T02:25:40;18.40;31.80
33564;DHT22;19894;48.452;11.494;2023-03-12T02:28:12;18.40;31.80
33564;DHT22;19894;48.452;11.494;2023-03-12T02:30:40;18.40;31.80
33564;DHT22;19894;48.452;11.494;2023-03-12T02:33:09;18.40;31.80
33564;DHT22;19894;48.452;11.494;2023-03-12T02:35:35;18.40;31.80
33564;DHT22;19894;48.452;11.494;2023-03-12T02:38:01;18.40;31.80
33564;DHT22;19894;48.452;11.494;2023-03-12T02:40:42;18.40;31.70
33564;DHT22;19894;48.452;11.494;2023-03-12T02:43:09;18.40;31.70
33564;DHT22;19894;48.452;11.494;2023-03-12T02:45:37;18.40;31.80
33564;DHT22;19894;48.452;11.494;2023-03-12T02:48:07;18.40;31.80
33564;DHT22;19894;48.452;11.494;2023-03-12T02:50:33;18.40;31.70
33564;DHT22;19894;48.452;11.494;2023-03-12T02:52:58;18.40;31.70
33564;DHT22;19894;48.452;11.494;2023-03-12T02:55:24;18.40;31.70
33564;DHT22;19894;48.452;11.494;2023-03-12T02:57:49;18.40;32.10
33564;DHT22;19894;48.452;11.494;2023-03-12T03:00:16;18.40;31.60
33564;DHT22;19894;48.452;11.494;2023-03-12T03:02:42;18.40;31.70
33564;DHT22;19894;48.452;11.494;2023-03-12T03:05:09;18.40;31.60
33564;DHT22;19894;48.452;11.494;2023-03-12T03:07:35;18.40;31.70
33564;DHT22;19894;48.452;11.494;2023-03-12T03:10:02;18.40;31.70
33564;DHT22;19894;48.452;11.494;2023-03-12T03:12:29;18.40;31.70
33564;DHT22;19894;48.452;11.494;2023-03-12T03:14:55;18.40;31.70
33564;DHT22;19894;48.452;11.494;2023-03-12T03:17:20;18.40;31.70
33564;DHT22;19894;48.452;11.494;2023-03-12T03:19:47;18.40;31.70
33564;DHT22;19894;48.452;11.494;2023-03-12T03:22:13;18.40;31.70
33564;DHT22;19894;48.452;11.494;2023-03-12T03:24:38;18.40;31.70
33564;DHT22;19894;48.452;11.494;2023-03-12T03:27:04;18.40;31.70
33564;DHT22;19894;48.452;11.494;2023-03-12T03:29:30;18.40;31.70
33564;DHT22;19894;48.452;11.494;2023-03-12T03:31:55;18.40;31.70
33564;DHT22;19894;48.452;11.494;2023-03-12T03:34:21;18.40;31.70
33564;DHT22;19894;48.452;11.494;2023-03-12T03:36:46;18.40;31.70
33564;DHT22;19894;48.452;11.494;2023-03-12T03:39:12;18.40;31.70
33564;DHT22;19894;48.452;11.494;2023-03-12T03:41:37;18.30;31.60
33564;DHT22;19894;48.452;11.494;2023-03-12T03:44:03;18.40;31.70
33564;DHT22;19894;48.452;11.494;2023-03-12T03:46:29;18.40;31.70
33564;DHT22;19894;48.452;11.494;2023-03-12T03:48:56;18.40;31.60
33564;DHT22;19894;48.452;11.494;2023-03-12T03:51:21;18.40;31.60
33564;DHT22;19894;48.452;11.494;2023-03-12T03:53:47;18.40;31.60
33564;DHT22;19894;48.452;11.494;2023-03-12T03:56:14;18.40;31.50
33564;DHT22;19894;48.452;11.494;2023-03-12T03:58:40;18.40;31.50
33564;DHT22;19894;48.452;11.494;2023-03-12T04:01:06;18.40;31.50
33564;DHT22;19894;48.452;11.494;2023-03-12T04:03:33;18.40;31.50
33564;DHT22;19894;48.452;11.494;2023-03-12T04:06:00;18.40;31.60
33564;DHT22;19894;48.452;11.494;2023-03-12T04:08:26;18.40;31.60
33564;DHT22;19894;48.452;11.494;2023-03-12T04:10:53;18.40;31.60
33564;DHT22;19894;48.452;11.494;2023-03-12T04:13:19;18.40;31.60
33564;DHT22;19894;48.452;11.494;2023-03-12T04:15:50;18.40;31.60
33564;DHT22;19894;48.452;11.494;2023-03-12T04:18:16;18.40;31.60
33564;DHT22;19894;48.452;11.494;2023-03-12T04:20:42;18.40;31.60
33564;DHT22;19894;48.452;11.494;2023-03-12T04:23:08;18.40;31.60
33564;DHT22;19894;48.452;11.494;2023-03-12T04:25:33;18.40;31.60
33564;DHT22;19894;48.452;11.494;2023-03-12T04:27:59;18.40;31.60
33564;DHT22;19894;48.452;11.494;2023-03-12T04:30:25;18.40;31.60
33564;DHT22;19894;48.452;11.494;2023-03-12T04:32:52;18.40;31.60
33564;DHT22;19894;48.452;11.494;2023-03-12T04:35:18;18.40;31.60
33564;DHT22;19894;48.452;11.494;2023-03-12T04:37:44;18.40;31.60
33564;DHT22;19894;48.452;11.494;2023-03-12T04:40:10;18.40;31.60
33564;DHT22;19894;48.452;11.494;2023-03-12T04:42:36;18.40;31.60
33564;DHT22;19894;48.452;11.494;2023-03-12T04:45:03;18.40;31.60
33564;DHT22;19894;48.452;11.494;2023-03-12T04:47:31;18.40;31.60
33564;DHT22;19894;48.452;11.494;2023-03-12T04:49:57;18.40;31.50
33564;DHT22;19894;48.452;11.494;2023-03-12T04:52:22;18.40;31.60
33564;DHT22;19894;48.452;11.494;2023-03-12T04:54:48;18.40;31.60
33564;DHT22;19894;48.452;11.494;2023-03-12T04:57:14;18.40;31.50
33564;DHT22;19894;48.452;11.494;2023-03-12T04:59:39;18.40;31.50
33564;DHT22;19894;48.452;11.494;2023-03-12T05:02:05;18.40;31.50
33564;DHT22;19894;48.452;11.494;2023-03-12T05:04:30;18.40;31.50
33564;DHT22;19894;48.452;11.494;2023-03-12T05:06:56;18.40;31.60
33564;DHT22;19894;48.452;11.494;2023-03-12T05:09:21;18.40;31.50
33564;DHT22;19894;48.452;11.494;2023-03-12T05:11:47;18.40;31.60
33564;DHT22;19894;48.452;11.494;2023-03-12T05:14:12;18.40;31.60
33564;DHT22;19894;48.452;11.494;2023-03-12T05:16:38;18.40;31.60
33564;DHT22;19894;48.452;11.494;2023-03-12T05:19:04;18.40;31.60
33564;DHT22;19894;48.452;11.494;2023-03-12T05:21:29;18.40;31.60
33564;DHT22;19894;48.452;11.494;2023-03-12T05:23:55;18.40;31.60
33564;DHT22;19894;48.452;11.494;2023-03-12T05:26:23;18.40;31.60
33564;DHT22;19894;48.452;11.494;2023-03-12T05:28:50;18.40;31.60
33564;DHT22;19894;48.452;11.494;2023-03-12T05:31:16;18.40;31.60
33564;DHT22;19894;48.452;11.494;2023-03-12T05:33:42;18.40;31.60
33564;DHT22;19894;48.452;11.494;2023-03-12T05:36:09;18.40;31.60
33564;DHT22;19894;48.452;11.494;2023-03-12T05:38:35;18.40;31.60
33564;DHT22;19894;48.452;11.494;2023-03-12T05:41:02;18.40;31.60
33564;DHT22;19894;48.452;11.494;2023-03-12T05:43:28;18.40;31.60
33564;DHT22;19894;48.452;11.494;2023-03-12T05:45:58;18.40;31.60
33564;DHT22;19894;48.452;11.494;2023-03-12T05:48:25;18.40;31.60
33564;DHT22;19894;48.452;11.494;2023-03-12T05:50:50;18.40;31.60
33564;DHT22;19894;48.452;11.494;2023-03-12T05:53:16;18.40;31.60
33564;DHT22;19894;48.452;11.494;2023-03-12T05:55:42;18.40;31.60
33564;DHT22;19894;48.452;11.494;2023-03-12T05:58:08;18.40;31.50
33564;DHT22;19894;48.452;11.494;2023-03-12T06:00:34;18.40;31.50
33564;DHT22;19894;48.452;11.494;2023-03-12T06:03:03;18.40;31.50
33564;DHT22;19894;48.452;11.494;2023-03-12T06:05:30;18.40;31.50
33564;DHT22;19894;48.452;11.494;2023-03-12T06:07:56;18.40;31.50
33564;DHT22;19894;48.452;11.494;2023-03-12T06:10:22;18.40;31.60
33564;DHT22;19894;48.452;11.494;2023-03-12T06:12:47;18.40;31.60
33564;DHT22;19894;48.452;11.494;2023-03-12T06:15:13;18.40;31.60
33564;DHT22;19894;48.452;11.494;2023-03-12T06:17:39;18.40;31.60
33564;DHT22;19894;48.452;11.494;2023-03-12T06:20:05;18.40;31.60
33564;DHT22;19894;48.452;11.494;2023-03-12T06:22:30;18.40;31.60
33564;DHT22;19894;48.452;11.494;2023-03-12T06:24:56;18.40;31.60
33564;DHT22;19894;48.452;11.494;2023-03-12T06:27:22;18.40;31.60
33564;DHT22;19894;48.452;11.494;2023-03-12T06:29:47;18.40;31.60
33564;DHT22;19894;48.452;11.494;2023-03-12T06:32:13;18.40;31.60
33564;DHT22;19894;48.452;11.494;2023-03-12T06:34:39;18.40;31.60
33564;DHT22;19894;48.452;11.494;2023-03-12T06:37:05;18.40;31.60
33564;DHT22;19894;48.452;11.494;2023-03-12T06:39:30;18.40;31.60
33564;DHT22;19894;48.452;11.494;2023-03-12T06:41:56;18.40;31.60
33564;DHT22;19894;48.452;11.494;2023-03-12T06:44:21;18.40;31.60
33564;DHT22;19894;48.452;11.494;2023-03-12T06:46:47;18.40;31.60
33564;DHT22;19894;48.452;11.494;2023-03-12T06:49:13;18.40;31.60
33564;DHT22;19894;48.452;11.494;2023-03-12T06:51:39;18.40;31.60
33564;DHT22;19894;48.452;11.494;2023-03-12T06:54:04;18.40;31.60
33564;DHT22;19894;48.452;11.494;2023-03-12T06:56:30;18.40;31.60
33564;DHT22;19894;48.452;11.494;2023-03-12T06:58:56;18.40;31.60
33564;DHT22;19894;48.452;11.494;2023-03-12T07:01:22;18.40;31.60
33564;DHT22;19894;48.452;11.494;2023-03-12T07:03:47;18.40;31.60
33564;DHT22;19894;48.452;11.494;2023-03-12T07:06:15;18.40;31.60
33564;DHT22;19894;48.452;11.494;2023-03-12T07:08:42;18.40;31.60
33564;DHT22;19894;48.452;11.494;2023-03-12T07:11:08;18.40;31.60
33564;DHT22;19894;48.452;11.494;2023-03-12T07:13:33;18.40;31.60
33564;DHT22;19894;48.452;11.494;2023-03-12T07:15:59;18.40;31.70
33564;DHT22;19894;48.452;11.494;2023-03-12T07:18:25;18.40;31.70
33564;DHT22;19894;48.452;11.494;2023-03-12T07:20:51;18.40;31.70
33564;DHT22;19894;48.452;11.494;2023-03-12T07:23:17;18.40;31.70
33564;DHT22;19894;48.452;11.494;2023-03-12T07:25:43;18.40;31.60
33564;DHT22;19894;48.452;11.494;2023-03-12T07:28:09;18.40;31.70
33564;DHT22;19894;48.452;11.494;2023-03-12T07:30:37;18.40;31.70
33564;DHT22;19894;48.452;11.494;2023-03-12T07:33:08;18.40;31.70
33564;DHT22;19894;48.452;11.494;2023-03-12T07:35:35;18.40;31.70
33564;DHT22;19894;48.452;11.494;2023-03-12T07:38:00;18.40;31.70
33564;DHT22;19894;48.452;11.494;2023-03-12T07:40:27;18.40;31.70
33564;DHT22;19894;48.452;11.494;2023-03-12T07:42:53;18.40;31.70
33564;DHT22;19894;48.452;11.494;2023-03-12T07:45:19;18.40;31.70
33564;DHT22;19894;48.452;11.494;2023-03-12T07:47:44;18.40;31.70
33564;DHT22;19894;48.452;11.494;2023-03-12T07:50:10;18.40;31.80
33564;DHT22;19894;48.452;11.494;2023-03-12T07:52:36;18.40;31.80
33564;DHT22;19894;48.452;11.494;2023-03-12T07:55:02;18.40;31.80
33564;DHT22;19894;48.452;11.494;2023-03-12T07:57:27;18.40;31.80
33564;DHT22;19894;48.452;11.494;2023-03-12T07:59:53;18.40;31.80
33564;DHT22;19894;48.452;11.494;2023-03-12T08:02:19;18.40;31.80
33564;DHT22;19894;48.452;11.494;2023-03-12T08:04:45;18.40;31.80
33564;DHT22;19894;48.452;11.494;2023-03-12T08:07:10;18.40;31.80
33564;DHT22;19894;48.452;11.494;2023-03-12T08:09:37;18.40;31.90
33564;DHT22;19894;48.452;11.494;2023-03-12T08:12:03;18.40;31.90
33564;DHT22;19894;48.452;11.494;2023-03-12T08:14:29;18.40;31.90
33564;DHT22;19894;48.452;11.494;2023-03-12T08:16:56;18.40;31.90
33564;DHT22;19894;48.452;11.494;2023-03-12T08:19:23;18.40;31.90
33564;DHT22;19894;48.452;11.494;2023-03-12T08:21:49;18.40;31.90
33564;DHT22;19894;48.452;11.494;2023-03-12T08:24:16;18.40;31.90
33564;DHT22;19894;48.452;11.494;2023-03-12T08:26:41;18.40;31.90
33564;DHT22;19894;48.452;11.494;2023-03-12T08:29:07;18.40;31.90
33564;DHT22;19894;48.452;11.494;2023-03-12T08:31:33;18.40;31.90
33564;DHT22;19894;48.452;11.494;2023-03-12T08:33:58;18.40;31.90
33564;DHT22;19894;48.452;11.494;2023-03-12T08:36:24;18.40;31.90
33564;DHT22;19894;48.452;11.494;2023-03-12T08:38:49;18.40;31.90
33564;DHT22;19894;48.452;11.494;2023-03-12T08:41:15;18.40;31.90
33564;DHT22;19894;48.452;11.494;2023-03-12T08:43:40;18.40;31.90
33564;DHT22;19894;48.452;11.494;2023-03-12T08:46:06;18.40;32.00
33564;DHT22;19894;48.452;11.494;2023-03-12T08:48:31;18.40;32.00
33564;DHT22;19894;48.452;11.494;2023-03-12T08:50:59;18.40;32.10
33564;DHT22;19894;48.452;11.494;2023-03-12T08:53:26;18.40;32.10
33564;DHT22;19894;48.452;11.494;2023-03-12T08:55:54;18.40;32.10
33564;DHT22;19894;48.452;11.494;2023-03-12T08:58:21;18.40;32.10
33564;DHT22;19894;48.452;11.494;2023-03-12T09:00:47;18.40;32.10
33564;DHT22;19894;48.452;11.494;2023-03-12T09:03:13;18.40;32.10
33564;DHT22;19894;48.452;11.494;2023-03-12T09:05:40;18.40;32.20
33564;DHT22;19894;48.452;11.494;2023-03-12T09:08:06;18.40;32.10
33564;DHT22;19894;48.452;11.494;2023-03-12T09:10:32;18.40;32.10
33564;DHT22;19894;48.452;11.494;2023-03-12T09:12:58;18.40;32.10
33564;DHT22;19894;48.452;11.494;2023-03-12T09:15:24;18.40;32.10
33564;DHT22;19894;48.452;11.494;2023-03-12T09:17:50;18.40;32.20
33564;DHT22;19894;48.452;11.494;2023-03-12T09:20:16;18.40;32.20
33564;DHT22;19894;48.452;11.494;2023-03-12T09:22:42;18.40;32.20
33564;DHT22;19894;48.452;11.494;2023-03-12T09:25:08;18.40;32.10
33564;DHT22;19894;48.452;11.494;2023-03-12T09:27:40;18.40;32.20
33564;DHT22;19894;48.452;11.494;2023-03-12T09:30:10;18.40;32.10
33564;DHT22;19894;48.452;11.494;2023-03-12T09:32:36;18.40;32.10
33564;DHT22;19894;48.452;11.494;2023-03-12T09:35:03;18.40;32.20
33564;DHT22;19894;48.452;11.494;2023-03-12T09:37:29;18.40;32.20
33564;DHT22;19894;48.452;11.494;2023-03-12T09:39:56;18.40;32.20
33564;DHT22;19894;48.452;11.494;2023-03-12T09:42:40;18.40;32.20
33564;DHT22;19894;48.452;11.494;2023-03-12T09:45:15;18.40;32.20
33564;DHT22;19894;48.452;11.494;2023-03-12T09:47:53;18.40;32.30
33564;DHT22;19894;48.452;11.494;2023-03-12T09:50:26;18.40;32.30
33564;DHT22;19894;48.452;11.494;2023-03-12T09:53:02;18.40;32.40
33564;DHT22;19894;48.452;11.494;2023-03-12T09:55:36;18.40;32.40
33564;DHT22;19894;48.452;11.494;2023-03-12T09:58:02;18.40;32.50
33564;DHT22;19894;48.452;11.494;2023-03-12T10:00:33;18.40;32.50
33564;DHT22;19894;48.452;11.494;2023-03-12T10:05:45;18.40;32.60
33564;DHT22;19894;48.452;11.494;2023-03-12T10:13:52;18.40;32.60
33564;DHT22;19894;48.452;11.494;2023-03-12T10:19:23;18.40;32.60
33564;DHT22;19894;48.452;11.494;2023-03-12T10:27:12;18.40;32.70
33564;DHT22;19894;48.452;11.494;2023-03-12T10:29:41;18.40;32.70
33564;DHT22;19894;48.452;11.494;2023-03-12T10:34:47;18.40;32.60
33564;DHT22;19894;48.452;11.494;2023-03-12T10:37:21;18.40;32.60
33564;DHT22;19894;48.452;11.494;2023-03-12T10:39:49;18.40;32.70
33564;DHT22;19894;48.452;11.494;2023-03-12T10:42:26;18.40;32.70
33564;DHT22;19894;48.452;11.494;2023-03-12T10:47:34;18.40;32.70
33564;DHT22;19894;48.452;11.494;2023-03-12T10:50:24;18.40;32.70
33564;DHT22;19894;48.452;11.494;2023-03-12T10:52:52;18.40;32.80
33564;DHT22;19894;48.452;11.494;2023-03-12T10:55:24;18.40;32.80
33564;DHT22;19894;48.452;11.494;2023-03-12T10:57:51;18.40;32.90
33564;DHT22;19894;48.452;11.494;2023-03-12T11:00:28;18.40;33.00
33564;DHT22;19894;48.452;11.494;2023-03-12T11:05:29;18.40;33.10
33564;DHT22;19894;48.452;11.494;2023-03-12T11:07:56;18.40;33.20
33564;DHT22;19894;48.452;11.494;2023-03-12T11:13:28;18.40;33.10
33564;DHT22;19894;48.452;11.494;2023-03-12T11:15:59;18.40;33.10
33564;DHT22;19894;48.452;11.494;2023-03-12T11:18:34;18.40;33.10
33564;DHT22;19894;48.452;11.494;2023-03-12T11:23:40;18.40;33.10
33564;DHT22;19894;48.452;11.494;2023-03-12T11:26:21;18.40;33.10
33564;DHT22;19894;48.452;11.494;2023-03-12T11:28:54;18.40;33.10
33564;DHT22;19894;48.452;11.494;2023-03-12T11:31:24;18.40;33.10
33564;DHT22;19894;48.452;11.494;2023-03-12T11:33:54;18.40;33.10
33564;DHT22;19894;48.452;11.494;2023-03-12T11:37:03;18.40;33.10
33564;DHT22;19894;48.452;11.494;2023-03-12T11:48:02;18.40;33.10
33564;DHT22;19894;48.452;11.494;2023-03-12T11:50:36;18.40;33.20
33564;DHT22;19894;48.452;11.494;2023-03-12T11:53:14;18.40;33.30
33564;DHT22;19894;48.452;11.494;2023-03-12T11:55:59;18.40;33.30
33564;DHT22;19894;48.452;11.494;2023-03-12T12:09:02;18.40;33.70
33564;DHT22;19894;48.452;11.494;2023-03-12T12:11:48;18.40;33.60
33564;DHT22;19894;48.452;11.494;2023-03-12T12:27:56;18.40;33.60
33564;DHT22;19894;48.452;11.494;2023-03-12T12:35:56;18.40;33.60
33564;DHT22;19894;48.452;11.494;2023-03-12T12:38:37;18.40;33.60
33564;DHT22;19894;48.452;11.494;2023-03-12T12:41:22;18.40;33.60
33564;DHT22;19894;48.452;11.494;2023-03-12T12:43:59;18.40;33.60
33564;DHT22;19894;48.452;11.494;2023-03-12T12:46:33;18.40;33.70
33564;DHT22;19894;48.452;11.494;2023-03-12T12:49:11;18.40;33.60
33564;DHT22;19894;48.452;11.494;2023-03-12T12:51:46;18.40;33.70
33564;DHT22;19894;48.452;11.494;2023-03-12T12:57:30;18.40;34.30
33564;DHT22;19894;48.452;11.494;2023-03-12T13:00:19;18.40;33.90
33564;DHT22;19894;48.452;11.494;2023-03-12T13:02:46;18.40;34.00
33564;DHT22;19894;48.452;11.494;2023-03-12T13:07:50;18.40;34.10
33564;DHT22;19894;48.452;11.494;2023-03-12T13:12:57;18.40;34.20
33564;DHT22;19894;48.452;11.494;2023-03-12T13:18:04;18.40;34.00
33564;DHT22;19894;48.452;11.494;2023-03-12T13:20:40;18.40;34.00
33564;DHT22;19894;48.452;11.494;2023-03-12T13:23:35;18.40;34.00
33564;DHT22;19894;48.452;11.494;2023-03-12T13:26:05;18.40;34.00
33564;DHT22;19894;48.452;11.494;2023-03-12T13:33:57;18.40;34.10
33564;DHT22;19894;48.452;11.494;2023-03-12T13:36:26;18.40;34.10
33564;DHT22;19894;48.452;11.494;2023-03-12T13:41:53;18.40;34.10
33564;DHT22;19894;48.452;11.494;2023-03-12T13:44:38;18.40;34.10
33564;DHT22;19894;48.452;11.494;2023-03-12T13:47:22;18.40;34.10
33564;DHT22;19894;48.452;11.494;2023-03-12T13:49:59;18.40;34.20
33564;DHT22;19894;48.452;11.494;2023-03-12T13:52:40;18.40;34.20
33564;DHT22;19894;48.452;11.494;2023-03-12T13:57:44;18.40;34.20
33564;DHT22;19894;48.452;11.494;2023-03-12T14:05:56;18.40;34.50
33564;DHT22;19894;48.452;11.494;2023-03-12T14:16:56;18.40;34.60
33564;DHT22;19894;48.452;11.494;2023-03-12T14:19:29;18.40;34.50
33564;DHT22;19894;48.452;11.494;2023-03-12T14:21:56;18.40;34.50
33564;DHT22;19894;48.452;11.494;2023-03-12T14:24:28;18.40;34.50
33564;DHT22;19894;48.452;11.494;2023-03-12T14:26:56;18.40;34.40
33564;DHT22;19894;48.452;11.494;2023-03-12T14:31:54;18.40;34.60
33564;DHT22;19894;48.452;11.494;2023-03-12T14:34:26;18.40;34.50
33564;DHT22;19894;48.452;11.494;2023-03-12T14:36:59;18.40;34.50
33564;DHT22;19894;48.452;11.494;2023-03-12T14:39:34;18.40;34.50
33564;DHT22;19894;48.452;11.494;2023-03-12T14:42:03;18.40;34.60
33564;DHT22;19894;48.452;11.494;2023-03-12T14:44:30;18.40;34.60
33564;DHT22;19894;48.452;11.494;2023-03-12T14:47:07;18.40;34.60
33564;DHT22;19894;48.452;11.494;2023-03-12T14:49:44;18.40;34.60
33564;DHT22;19894;48.452;11.494;2023-03-12T14:52:11;18.40;34.60
33564;DHT22;19894;48.452;11.494;2023-03-12T14:54:37;18.40;34.60
33564;DHT22;19894;48.452;11.494;2023-03-12T14:57:04;18.40;34.70
33564;DHT22;19894;48.452;11.494;2023-03-12T14:59:32;18.40;34.80
33564;DHT22;19894;48.452;11.494;2023-03-12T15:02:20;18.40;34.80
33564;DHT22;19894;48.452;11.494;2023-03-12T15:04:51;18.40;35.00
33564;DHT22;19894;48.452;11.494;2023-03-12T15:07:22;18.40;35.00
33564;DHT22;19894;48.452;11.494;2023-03-12T15:09:51;18.40;35.10
33564;DHT22;19894;48.452;11.494;2023-03-12T15:12:26;18.40;35.10
33564;DHT22;19894;48.452;11.494;2023-03-12T15:15:01;18.40;35.10
33564;DHT22;19894;48.452;11.494;2023-03-12T15:17:29;18.40;35.00
33564;DHT22;19894;48.452;11.494;2023-03-12T15:19:55;18.40;35.00
33564;DHT22;19894;48.452;11.494;2023-03-12T15:22:23;18.40;34.90
33564;DHT22;19894;48.452;11.494;2023-03-12T15:24:52;18.40;34.80
33564;DHT22;19894;48.452;11.494;2023-03-12T15:29:54;18.40;35.60
33564;DHT22;19894;48.452;11.494;2023-03-12T15:32:22;18.40;35.00
33564;DHT22;19894;48.452;11.494;2023-03-12T15:34:53;18.40;34.90
33564;DHT22;19894;48.452;11.494;2023-03-12T15:37:29;18.40;34.90
33564;DHT22;19894;48.452;11.494;2023-03-12T15:40:01;18.50;35.00
33564;DHT22;19894;48.452;11.494;2023-03-12T15:42:37;18.40;34.90
33564;DHT22;19894;48.452;11.494;2023-03-12T15:45:04;18.40;35.00
33564;DHT22;19894;48.452;11.494;2023-03-12T15:47:38;18.40;35.00
33564;DHT22;19894;48.452;11.494;2023-03-12T15:50:36;18.40;35.00
33564;DHT22;19894;48.452;11.494;2023-03-12T15:55:36;18.40;35.00
33564;DHT22;19894;48.452;11.494;2023-03-12T15:58:21;18.40;35.10
33564;DHT22;19894;48.452;11.494;2023-03-12T16:00:48;18.40;35.20
33564;DHT22;19894;48.452;11.494;2023-03-12T16:03:18;18.40;35.30
33564;DHT22;19894;48.452;11.494;2023-03-12T16:05:45;18.40;35.50
33564;DHT22;19894;48.452;11.494;2023-03-12T16:08:15;18.40;35.50
33564;DHT22;19894;48.452;11.494;2023-03-12T16:10:42;18.40;35.60
33564;DHT22;19894;48.452;11.494;2023-03-12T16:13:11;18.40;35.60
33564;DHT22;19894;48.452;11.494;2023-03-12T16:15:38;18.40;35.50
33564;DHT22;19894;48.452;11.494;2023-03-12T16:18:05;18.40;35.50
33564;DHT22;19894;48.452;11.494;2023-03-12T16:20:35;18.40;35.50
33564;DHT22;19894;48.452;11.494;2023-03-12T16:23:01;18.40;35.40
33564;DHT22;19894;48.452;11.494;2023-03-12T16:25:26;18.40;35.40
33564;DHT22;19894;48.452;11.494;2023-03-12T16:27:55;18.40;35.50
33564;DHT22;19894;48.452;11.494;2023-03-12T16:30:35;18.40;35.30
33564;DHT22;19894;48.452;11.494;2023-03-12T16:33:02;18.40;35.40
33564;DHT22;19894;48.452;11.494;2023-03-12T16:35:28;18.40;35.40
33564;DHT22;19894;48.452;11.494;2023-03-12T16:37:56;18.40;35.40
33564;DHT22;19894;48.452;11.494;2023-03-12T16:40:22;18.40;35.30
33564;DHT22;19894;48.452;11.494;2023-03-12T16:42:50;18.40;35.40
33564;DHT22;19894;48.452;11.494;2023-03-12T16:45:17;18.40;35.40
33564;DHT22;19894;48.452;11.494;2023-03-12T16:47:44;18.40;35.50
33564;DHT22;19894;48.452;11.494;2023-03-12T16:50:18;18.40;35.40
33564;DHT22;19894;48.452;11.494;2023-03-12T16:52:44;18.40;35.40
33564;DHT22;19894;48.452;11.494;2023-03-12T16:55:16;18.40;36.00
33564;DHT22;19894;48.452;11.494;2023-03-12T16:58:05;18.40;35.50
33564;DHT22;19894;48.452;11.494;2023-03-12T17:00:32;18.40;35.50
33564;DHT22;19894;48.452;11.494;2023-03-12T17:02:58;18.40;35.60
33564;DHT22;19894;48.452;11.494;2023-03-12T17:05:29;18.40;35.80
33564;DHT22;19894;48.452;11.494;2023-03-12T17:07:55;18.40;36.00
33564;DHT22;19894;48.452;11.494;2023-03-12T17:10:21;18.40;35.90
33564;DHT22;19894;48.452;11.494;2023-03-12T17:12:48;18.40;36.00
33564;DHT22;19894;48.452;11.494;2023-03-12T17:15:23;18.40;36.00
33564;DHT22;19894;48.452;11.494;2023-03-12T17:17:50;18.50;36.10
33564;DHT22;19894;48.452;11.494;2023-03-12T17:20:18;18.50;35.80
33564;DHT22;19894;48.452;11.494;2023-03-12T17:22:44;18.50;35.80